Time;durP1;ratioP1;P1;durP2;ratioP2;P2;SDS_P1;SDS_P2;PMS_P1;PMS_P2;Temp;Humidity;BMP_temperature;BMP_pressure;BME280_temperature;BME280_humidity;BME280_pressure;Samples;Min_cycle;Max_cycle;Signal;HPM_P1;HPM_P2
2023/12/09 00:00:10;;;;;;;31.73;24.88;;;;;;;;;;10327663;28;20086;-65
2023/12/09 00:05:09;;;;;;;34.97;24.65;;;;;;;;;;10338571;28;20064;-63
2023/12/09 00:10:09;;;;;;;32.35;25.77;;;;;;;;;;10340098;28;20481;-63
2023/12/09 00:15:09;;;;;;;32.97;24.23;;;;;;;;;;10311181;28;20080;-65
2023/12/09 00:20:09;;;;;;;34.22;25.25;;;;;;;;;;10332541;28;20075;-65
2023/12/09 00:25:09;;;;;;;32.90;24.38;;;;;;;;;;10325914;28;20094;-64
2023/12/09 00:30:08;;;;;;;35.42;26.60;;;;;;;;;;10335099;28;20395;-65
2023/12/09 00:35:07;;;;;;;33.35;24.77;;;;;;;;;;10318601;28;20072;-64
2023/12/09 00:40:05;;;;;;;34.28;25.17;;;;;;;;;;10332579;28;20540;-64
2023/12/09 00:45:05;;;;;;;32.72;23.48;;;;;;;;;;10325840;28;20071;-64
2023/12/09 00:50:04;;;;;;;31.27;22.27;;;;;;;;;;10337488;28;20094;-64
2023/12/09 00:55:04;;;;;;;30.92;24.48;;;;;;;;;;10329668;28;20076;-64
2023/12/09 01:00:04;;;;;;;34.17;25.50;;;;;;;;;;10304093;28;20071;-64
2023/12/09 01:05:04;;;;;;;32.38;24.58;;;;;;;;;;10334504;28;20441;-64
2023/12/09 01:10:03;;;;;;;30.08;21.40;;;;;;;;;;10332220;28;20066;-63
2023/12/09 01:15:02;;;;;;;27.98;20.83;;;;;;;;;;10324862;28;20077;-64
2023/12/09 01:20:01;;;;;;;30.33;21.67;;;;;;;;;;10328441;28;20072;-64
2023/12/09 01:25:03;;;;;;;29.77;21.40;;;;;;;;;;10332165;28;20534;-64
2023/12/09 01:30:04;;;;;;;30.95;20.85;;;;;;;;;;10331181;28;20068;-65
2023/12/09 01:35:02;;;;;;;27.63;19.83;;;;;;;;;;10327147;28;20071;-65
2023/12/09 01:40:02;;;;;;;27.25;19.55;;;;;;;;;;10327053;28;20087;-64
2023/12/09 01:45:00;;;;;;;28.35;21.83;;;;;;;;;;10334543;28;21034;-65
2023/12/09 01:49:59;;;;;;;31.38;21.08;;;;;;;;;;10325781;28;20079;-64
2023/12/09 01:54:58;;;;;;;30.50;21.23;;;;;;;;;;10336520;28;20098;-64
2023/12/09 01:59:57;;;;;;;29.13;20.70;;;;;;;;;;10328093;28;20078;-65
2023/12/09 02:04:56;;;;;;;37.10;27.13;;;;;;;;;;10319036;28;20256;-64
2023/12/09 02:09:54;;;;;;;28.13;21.52;;;;;;;;;;10317535;28;20079;-65
2023/12/09 02:14:58;;;;;;;29.92;22.38;;;;;;;;;;10343183;28;20079;-64
2023/12/09 02:19:58;;;;;;;30.92;21.08;;;;;;;;;;10336086;28;20072;-64
2023/12/09 02:24:58;;;;;;;36.03;24.13;;;;;;;;;;10348381;28;20528;-65
2023/12/09 02:30:00;;;;;;;30.13;20.92;;;;;;;;;;10334599;28;20084;-63
2023/12/09 02:34:59;;;;;;;35.80;25.48;;;;;;;;;;10329363;28;20064;-64
2023/12/09 02:40:00;;;;;;;32.92;23.55;;;;;;;;;;10328322;28;20084;-64
2023/12/09 02:44:58;;;;;;;30.27;21.80;;;;;;;;;;10339045;28;20071;-63
2023/12/09 02:49:57;;;;;;;27.88;20.60;;;;;;;;;;10341899;28;20075;-64
2023/12/09 02:54:55;;;;;;;32.58;24.38;;;;;;;;;;10339303;28;20098;-64
2023/12/09 02:59:55;;;;;;;33.17;24.60;;;;;;;;;;10324169;28;20508;-63
2023/12/09 03:04:53;;;;;;;31.33;21.90;;;;;;;;;;10336485;28;20059;-63
2023/12/09 03:09:52;;;;;;;29.65;23.60;;;;;;;;;;10316342;28;20064;-63
2023/12/09 03:14:50;;;;;;;31.95;22.30;;;;;;;;;;10328545;28;20087;-63
2023/12/09 03:19:49;;;;;;;33.60;22.42;;;;;;;;;;10335717;28;20063;-63
2023/12/09 03:24:48;;;;;;;35.15;25.25;;;;;;;;;;10341637;28;20067;-64
2023/12/09 03:29:46;;;;;;;33.20;22.90;;;;;;;;;;10343387;28;20082;-64
2023/12/09 03:34:45;;;;;;;31.83;22.67;;;;;;;;;;10327943;28;20064;-65
2023/12/09 03:39:44;;;;;;;36.05;25.77;;;;;;;;;;10327858;28;20083;-64
2023/12/09 03:44:43;;;;;;;35.63;23.83;;;;;;;;;;10333857;28;20076;-65
2023/12/09 03:49:41;;;;;;;28.67;21.85;;;;;;;;;;10323402;28;20064;-65
2023/12/09 03:54:39;;;;;;;32.83;24.30;;;;;;;;;;10342758;28;20074;-65
2023/12/09 03:59:41;;;;;;;32.42;23.85;;;;;;;;;;10319669;28;20068;-64
2023/12/09 04:04:41;;;;;;;36.42;26.05;;;;;;;;;;10335445;28;20068;-63
2023/12/09 04:09:39;;;;;;;31.80;23.33;;;;;;;;;;10337736;28;20053;-64
2023/12/09 04:14:38;;;;;;;31.67;22.58;;;;;;;;;;10327704;28;20072;-64
2023/12/09 04:19:38;;;;;;;36.42;23.58;;;;;;;;;;10331750;28;20072;-65
2023/12/09 04:24:37;;;;;;;33.80;25.17;;;;;;;;;;10320551;28;20083;-65
2023/12/09 04:29:35;;;;;;;29.88;22.75;;;;;;;;;;10335572;28;20072;-64
2023/12/09 04:34:33;;;;;;;34.33;23.35;;;;;;;;;;10327081;28;20075;-65
2023/12/09 04:39:33;;;;;;;34.60;23.15;;;;;;;;;;10327043;28;20513;-65
2023/12/09 04:44:31;;;;;;;36.00;22.75;;;;;;;;;;10335098;28;20104;-64
2023/12/09 04:49:29;;;;;;;30.27;22.50;;;;;;;;;;10322343;28;20080;-64
2023/12/09 04:54:28;;;;;;;34.10;23.02;;;;;;;;;;10323650;28;20056;-64
2023/12/09 04:59:27;;;;;;;29.02;22.83;;;;;;;;;;10316018;28;20114;-64
2023/12/09 05:04:28;;;;;;;32.00;22.75;;;;;;;;;;10325234;28;20072;-64
2023/12/09 05:09:26;;;;;;;31.17;21.65;;;;;;;;;;10326042;28;20068;-64
2023/12/09 05:14:24;;;;;;;32.05;21.92;;;;;;;;;;10340109;28;20373;-64
2023/12/09 05:19:24;;;;;;;29.27;22.10;;;;;;;;;;10328967;28;20497;-64
2023/12/09 05:24:22;;;;;;;29.75;20.23;;;;;;;;;;10319512;28;20084;-64
2023/12/09 05:29:21;;;;;;;27.95;18.88;;;;;;;;;;10333701;28;20072;-64
2023/12/09 05:34:19;;;;;;;28.70;20.88;;;;;;;;;;10334550;28;20080;-64
2023/12/09 05:39:19;;;;;;;25.98;18.55;;;;;;;;;;10334344;28;20080;-64
2023/12/09 05:44:17;;;;;;;31.60;21.40;;;;;;;;;;10341246;28;20071;-64
2023/12/09 05:49:15;;;;;;;24.73;17.80;;;;;;;;;;10328619;28;20075;-64
2023/12/09 05:54:14;;;;;;;40.45;27.30;;;;;;;;;;10348116;28;20079;-64
2023/12/09 05:59:14;;;;;;;27.13;18.60;;;;;;;;;;10324811;28;20075;-64
2023/12/09 06:04:12;;;;;;;30.08;20.83;;;;;;;;;;10345826;28;20056;-64
2023/12/09 06:09:10;;;;;;;27.80;19.85;;;;;;;;;;10344574;28;20072;-64
2023/12/09 06:14:08;;;;;;;25.02;18.98;;;;;;;;;;10340335;28;20082;-63
2023/12/09 06:19:09;;;;;;;27.55;18.65;;;;;;;;;;10331209;28;20485;-63
2023/12/09 06:24:07;;;;;;;27.33;18.13;;;;;;;;;;10343402;28;20142;-63
2023/12/09 06:29:05;;;;;;;22.20;18.40;;;;;;;;;;10355036;28;20067;-64
2023/12/09 06:34:03;;;;;;;23.27;19.50;;;;;;;;;;10353392;28;20060;-64
2023/12/09 06:39:03;;;;;;;28.13;18.38;;;;;;;;;;10343051;28;20522;-62
2023/12/09 06:44:02;;;;;;;30.42;22.17;;;;;;;;;;10345536;28;20071;-63
2023/12/09 06:49:00;;;;;;;35.55;23.75;;;;;;;;;;10350043;28;20504;-64
2023/12/09 06:54:04;;;;;;;29.55;19.90;;;;;;;;;;10347087;28;20102;-63
2023/12/09 06:59:02;;;;;;;38.58;31.17;;;;;;;;;;10346192;28;20076;-64
2023/12/09 07:04:01;;;;;;;31.33;26.25;;;;;;;;;;10347514;28;20055;-64
2023/12/09 07:08:59;;;;;;;29.83;22.73;;;;;;;;;;10334135;28;20139;-63
2023/12/09 07:13:59;;;;;;;22.52;18.17;;;;;;;;;;10349168;28;20516;-64
2023/12/09 07:18:59;;;;;;;28.27;20.05;;;;;;;;;;10343517;28;20536;-64
2023/12/09 07:23:58;;;;;;;30.08;21.40;;;;;;;;;;10345141;28;20068;-64
2023/12/09 07:28:56;;;;;;;27.67;20.27;;;;;;;;;;10316947;28;20072;-64
2023/12/09 07:33:56;;;;;;;25.58;18.95;;;;;;;;;;10331983;28;20070;-63
2023/12/09 07:38:54;;;;;;;28.23;19.27;;;;;;;;;;10273274;28;20167;-63
2023/12/09 07:43:53;;;;;;;32.15;26.17;;;;;;;;;;10281019;28;20052;-64
2023/12/09 07:48:51;;;;;;;27.40;19.48;;;;;;;;;;10286897;28;20147;-64
2023/12/09 07:53:51;;;;;;;24.90;19.48;;;;;;;;;;10276229;28;20139;-65
2023/12/09 07:58:49;;;;;;;23.42;18.00;;;;;;;;;;10296994;28;20163;-66
2023/12/09 08:03:48;;;;;;;36.28;27.02;;;;;;;;;;10284243;28;20058;-64
2023/12/09 08:08:50;;;;;;;35.83;24.88;;;;;;;;;;10275224;28;20043;-65
2023/12/09 08:13:50;;;;;;;29.98;23.20;;;;;;;;;;10268639;28;20949;-65
2023/12/09 08:18:49;;;;;;;29.60;20.77;;;;;;;;;;10274989;28;20505;-65
2023/12/09 08:23:49;;;;;;;30.00;20.98;;;;;;;;;;10302637;28;20144;-64
2023/12/09 08:28:47;;;;;;;38.83;28.80;;;;;;;;;;10298926;28;20119;-65
2023/12/09 08:33:47;;;;;;;58.85;34.75;;;;;;;;;;10300225;28;20068;-63
2023/12/09 08:38:45;;;;;;;50.20;36.03;;;;;;;;;;10294209;28;20151;-64
2023/12/09 08:43:43;;;;;;;59.03;39.42;;;;;;;;;;10310724;28;20501;-63
2023/12/09 08:48:42;;;;;;;53.22;35.85;;;;;;;;;;10321698;28;20063;-63
2023/12/09 08:53:42;;;;;;;47.95;33.80;;;;;;;;;;10285767;28;20127;-63
2023/12/09 08:58:40;;;;;;;35.55;22.27;;;;;;;;;;10311524;28;20068;-64
2023/12/09 09:03:38;;;;;;;31.67;22.58;;;;;;;;;;10304238;28;20132;-65
2023/12/09 09:08:37;;;;;;;28.35;19.00;;;;;;;;;;10321589;28;20068;-64
2023/12/09 09:13:36;;;;;;;38.05;26.02;;;;;;;;;;10280565;28;20143;-64
2023/12/09 09:18:34;;;;;;;45.22;30.17;;;;;;;;;;10273528;28;20129;-64
2023/12/09 09:23:34;;;;;;;30.17;21.63;;;;;;;;;;10276701;28;20040;-65
2023/12/09 09:28:32;;;;;;;31.35;21.77;;;;;;;;;;10287949;28;20046;-64
2023/12/09 09:33:32;;;;;;;27.55;20.48;;;;;;;;;;10320695;28;20099;-64
2023/12/09 09:38:30;;;;;;;37.95;25.58;;;;;;;;;;10320546;28;20122;-65
2023/12/09 09:43:30;;;;;;;54.78;38.65;;;;;;;;;;10322088;28;20482;-64
2023/12/09 09:48:30;;;;;;;31.42;25.27;;;;;;;;;;10337399;28;20484;-64
2023/12/09 09:53:34;;;;;;;44.97;30.00;;;;;;;;;;10314991;28;20475;-64
2023/12/09 09:58:32;;;;;;;35.15;26.77;;;;;;;;;;10320817;28;20076;-63
2023/12/09 10:03:31;;;;;;;70.75;43.33;;;;;;;;;;10331785;28;20079;-64
2023/12/09 10:08:30;;;;;;;40.83;27.65;;;;;;;;;;10326381;28;20087;-64
2023/12/09 10:13:29;;;;;;;47.95;29.85;;;;;;;;;;10336061;28;20462;-65
2023/12/09 10:18:27;;;;;;;31.40;24.00;;;;;;;;;;10335624;28;20063;-65
2023/12/09 10:23:26;;;;;;;34.10;22.52;;;;;;;;;;10327749;28;20076;-64
2023/12/09 10:28:26;;;;;;;53.67;31.60;;;;;;;;;;10338540;28;20071;-65
2023/12/09 10:33:24;;;;;;;64.80;38.78;;;;;;;;;;10324252;28;20068;-63
2023/12/09 10:38:23;;;;;;;34.05;23.42;;;;;;;;;;10311697;28;20084;-63
2023/12/09 10:43:21;;;;;;;28.50;21.00;;;;;;;;;;10332323;28;20071;-64
2023/12/09 10:48:21;;;;;;;27.63;20.65;;;;;;;;;;10336001;28;20060;-65
2023/12/09 10:53:19;;;;;;;24.30;18.40;;;;;;;;;;10326927;28;20116;-65
2023/12/09 10:58:18;;;;;;;23.02;17.83;;;;;;;;;;10330265;28;20090;-64
2023/12/09 11:03:17;;;;;;;25.77;17.05;;;;;;;;;;10336793;28;20513;-63
2023/12/09 11:08:17;;;;;;;29.17;20.83;;;;;;;;;;10330846;28;20078;-63
2023/12/09 11:13:15;;;;;;;22.13;17.75;;;;;;;;;;10334985;28;20557;-64
2023/12/09 11:18:17;;;;;;;24.63;17.48;;;;;;;;;;10332965;28;20501;-65
2023/12/09 11:23:17;;;;;;;40.45;24.52;;;;;;;;;;10326521;28;20095;-64
2023/12/09 11:28:16;;;;;;;38.28;19.73;;;;;;;;;;10329678;28;20063;-64
2023/12/09 11:33:16;;;;;;;43.53;23.25;;;;;;;;;;10327632;28;20080;-65
2023/12/09 11:38:15;;;;;;;19.23;13.38;;;;;;;;;;10339336;28;20082;-64
2023/12/09 11:43:15;;;;;;;37.38;23.63;;;;;;;;;;10329257;28;20079;-63
2023/12/09 11:48:13;;;;;;;57.70;29.85;;;;;;;;;;10334078;28;20075;-63
2023/12/09 11:53:12;;;;;;;23.60;17.80;;;;;;;;;;10325616;28;20501;-64
2023/12/09 11:58:10;;;;;;;33.78;21.10;;;;;;;;;;10327296;28;20064;-64
2023/12/09 12:03:09;;;;;;;23.15;16.25;;;;;;;;;;10332452;28;20072;-63
2023/12/09 12:08:08;;;;;;;13.48;10.20;;;;;;;;;;10328379;28;20090;-65
2023/12/09 12:13:06;;;;;;;32.15;24.45;;;;;;;;;;10332698;28;20068;-65
2023/12/09 12:18:05;;;;;;;24.77;19.10;;;;;;;;;;10328420;28;20066;-64
2023/12/09 12:23:05;;;;;;;28.05;21.23;;;;;;;;;;10307287;28;20194;-63
2023/12/09 12:28:08;;;;;;;27.60;21.20;;;;;;;;;;10326895;28;20060;-65
2023/12/09 12:33:07;;;;;;;23.05;18.17;;;;;;;;;;10279587;28;20155;-63
2023/12/09 12:38:07;;;;;;;27.10;19.33;;;;;;;;;;10291268;28;20048;-63
2023/12/09 12:43:05;;;;;;;32.97;23.30;;;;;;;;;;10300567;28;20492;-65
2023/12/09 12:48:04;;;;;;;38.28;26.55;;;;;;;;;;10292290;28;20599;-65
2023/12/09 12:53:03;;;;;;;29.20;19.77;;;;;;;;;;10295706;28;20137;-65
2023/12/09 12:58:03;;;;;;;29.17;17.77;;;;;;;;;;10287194;28;20164;-65
2023/12/09 13:03:02;;;;;;;29.45;25.08;;;;;;;;;;10299467;28;20170;-64
2023/12/09 13:08:00;;;;;;;23.80;18.65;;;;;;;;;;10312224;28;20729;-64
2023/12/09 13:12:58;;;;;;;17.98;13.80;;;;;;;;;;10320749;28;20074;-63
2023/12/09 13:17:58;;;;;;;22.02;14.40;;;;;;;;;;10299585;28;20134;-64
2023/12/09 13:22:57;;;;;;;24.08;17.58;;;;;;;;;;10288503;28;20131;-64
2023/12/09 13:27:55;;;;;;;50.22;29.02;;;;;;;;;;10290257;28;20123;-64
2023/12/09 13:33:00;;;;;;;36.28;22.73;;;;;;;;;;10309113;28;20073;-64
2023/12/09 13:38:00;;;;;;;23.42;14.85;;;;;;;;;;10297896;28;20067;-64
2023/12/09 13:43:00;;;;;;;19.25;14.55;;;;;;;;;;10311652;28;20064;-64
2023/12/09 13:47:59;;;;;;;37.38;25.45;;;;;;;;;;10309776;28;20127;-64
2023/12/09 13:52:57;;;;;;;34.67;24.67;;;;;;;;;;10317343;28;20493;-64
2023/12/09 13:57:57;;;;;;;39.92;26.25;;;;;;;;;;10325383;28;20065;-64
2023/12/09 14:02:56;;;;;;;36.15;25.38;;;;;;;;;;10299979;28;20135;-64
2023/12/09 14:07:54;;;;;;;37.20;25.08;;;;;;;;;;10306593;28;20143;-64
2023/12/09 14:12:52;;;;;;;54.17;33.80;;;;;;;;;;10321344;28;20079;-64
2023/12/09 14:17:52;;;;;;;70.32;43.72;;;;;;;;;;10291382;28;20955;-63
2023/12/09 14:22:51;;;;;;;50.75;37.28;;;;;;;;;;10261468;28;20746;-64
2023/12/09 14:27:49;;;;;;;47.78;33.95;;;;;;;;;;10281459;28;20054;-63
2023/12/09 14:32:47;;;;;;;30.20;22.38;;;;;;;;;;10280677;28;20153;-62
2023/12/09 14:37:50;;;;;;;38.58;27.30;;;;;;;;;;10305905;28;20150;-65
2023/12/09 14:42:48;;;;;;;33.55;26.80;;;;;;;;;;10315090;28;20155;-64
2023/12/09 14:47:47;;;;;;;23.02;18.63;;;;;;;;;;10326859;28;20071;-65
2023/12/09 14:52:59;;;;;;;27.48;20.02;;;;;;;;;;10336600;28;20068;-63
2023/12/09 14:57:58;;;;;;;29.15;25.80;;;;;;;;;;10327627;28;20072;-63
2023/12/09 15:02:56;;;;;;;33.75;26.15;;;;;;;;;;10250519;28;20081;-63
2023/12/09 15:07:55;;;;;;;30.70;21.73;;;;;;;;;;10220900;28;20080;-63
2023/12/09 15:12:54;;;;;;;31.30;23.50;;;;;;;;;;10220095;28;20072;-64
2023/12/09 15:17:53;;;;;;;27.83;20.08;;;;;;;;;;10217069;28;20111;-64
2023/12/09 15:22:51;;;;;;;28.08;19.75;;;;;;;;;;10208383;28;20065;-64
2023/12/09 15:27:49;;;;;;;21.63;14.85;;;;;;;;;;10197609;28;20064;-63
2023/12/09 15:32:49;;;;;;;23.73;19.13;;;;;;;;;;10226999;28;20459;-63
2023/12/09 15:37:48;;;;;;;28.20;20.45;;;;;;;;;;10206780;28;20498;-65
2023/12/09 15:42:46;;;;;;;50.20;31.90;;;;;;;;;;10232707;28;20069;-63
2023/12/09 15:47:44;;;;;;;30.70;21.50;;;;;;;;;;10204013;28;20081;-63
2023/12/09 15:52:44;;;;;;;47.03;33.05;;;;;;;;;;10212886;28;20523;-64
2023/12/09 15:57:43;;;;;;;27.45;18.08;;;;;;;;;;10204789;28;20088;-63
2023/12/09 16:02:42;;;;;;;46.28;27.15;;;;;;;;;;10227328;28;20525;-64
2023/12/09 16:07:43;;;;;;;20.20;15.48;;;;;;;;;;10203198;28;20458;-65
2023/12/09 16:12:44;;;;;;;22.33;17.15;;;;;;;;;;10216506;28;20083;-64
2023/12/09 16:17:44;;;;;;;22.95;16.42;;;;;;;;;;10214928;28;20065;-64
2023/12/09 16:22:42;;;;;;;22.05;16.50;;;;;;;;;;10221254;28;20073;-64
2023/12/09 16:27:42;;;;;;;32.33;23.83;;;;;;;;;;10208657;28;20077;-64
2023/12/09 16:32:41;;;;;;;17.08;14.35;;;;;;;;;;10213794;28;20069;-63
2023/12/09 16:37:40;;;;;;;18.60;14.77;;;;;;;;;;10216016;28;20542;-62
2023/12/09 16:42:38;;;;;;;25.42;17.95;;;;;;;;;;10214534;28;20088;-64
2023/12/09 16:47:38;;;;;;;23.35;16.52;;;;;;;;;;10212003;28;20078;-64
2023/12/09 16:52:36;;;;;;;22.20;17.60;;;;;;;;;;10204396;28;20072;-64
2023/12/09 16:57:35;;;;;;;25.05;19.25;;;;;;;;;;10209654;28;20538;-63
2023/12/09 17:02:33;;;;;;;35.88;24.60;;;;;;;;;;10215506;28;20069;-64
2023/12/09 17:07:33;;;;;;;33.40;23.77;;;;;;;;;;10210565;28;20582;-64
2023/12/09 17:12:31;;;;;;;31.35;23.45;;;;;;;;;;10221199;28;20077;-64
2023/12/09 17:17:29;;;;;;;25.48;18.20;;;;;;;;;;10199362;28;20065;-63
2023/12/09 17:22:31;;;;;;;33.97;23.48;;;;;;;;;;10210228;28;20061;-62
2023/12/09 17:27:30;;;;;;;38.17;28.25;;;;;;;;;;10207681;28;20124;-65
2023/12/09 17:32:29;;;;;;;58.75;43.58;;;;;;;;;;10191046;28;20129;-64
2023/12/09 17:37:27;;;;;;;25.83;20.52;;;;;;;;;;10182350;28;20148;-66
2023/12/09 17:42:26;;;;;;;31.17;24.67;;;;;;;;;;10181384;28;20565;-64
2023/12/09 17:47:26;;;;;;;27.65;20.67;;;;;;;;;;10181312;28;20191;-62
2023/12/09 17:52:27;;;;;;;25.00;20.25;;;;;;;;;;10196936;28;20124;-63
2023/12/09 17:57:27;;;;;;;23.50;18.65;;;;;;;;;;10210623;28;20061;-64
2023/12/09 18:02:27;;;;;;;19.92;16.15;;;;;;;;;;10194846;28;20124;-64
2023/12/09 18:07:26;;;;;;;24.08;18.80;;;;;;;;;;10215561;28;20073;-64
2023/12/09 18:12:24;;;;;;;21.50;17.10;;;;;;;;;;10217643;28;20073;-64
2023/12/09 18:17:23;;;;;;;33.72;23.52;;;;;;;;;;10221561;28;20065;-64
2023/12/09 18:22:23;;;;;;;25.95;16.40;;;;;;;;;;10209795;28;20080;-64
2023/12/09 18:27:21;;;;;;;26.05;20.58;;;;;;;;;;10224388;28;20069;-63
2023/12/09 18:32:20;;;;;;;22.15;15.48;;;;;;;;;;10223133;28;20084;-64
2023/12/09 18:37:20;;;;;;;20.55;14.30;;;;;;;;;;10217837;28;20089;-64
2023/12/09 18:42:19;;;;;;;20.63;15.93;;;;;;;;;;10209273;28;20072;-63
2023/12/09 18:47:19;;;;;;;20.30;17.45;;;;;;;;;;10209820;28;20077;-63
2023/12/09 18:52:17;;;;;;;18.73;15.15;;;;;;;;;;10221562;28;20061;-63
2023/12/09 18:57:16;;;;;;;17.98;14.35;;;;;;;;;;10211443;28;20084;-63
2023/12/09 19:02:16;;;;;;;17.55;13.18;;;;;;;;;;10231252;28;20061;-63
2023/12/09 19:07:14;;;;;;;21.08;16.05;;;;;;;;;;10218469;28;20080;-62
2023/12/09 19:12:13;;;;;;;24.20;16.90;;;;;;;;;;10228144;28;20095;-63
2023/12/09 19:17:11;;;;;;;24.70;18.38;;;;;;;;;;10227911;28;20107;-62
2023/12/09 19:22:11;;;;;;;25.52;18.17;;;;;;;;;;10225884;28;20057;-63
2023/12/09 19:27:10;;;;;;;20.17;16.23;;;;;;;;;;10208200;28;20069;-62
2023/12/09 19:32:08;;;;;;;21.13;15.75;;;;;;;;;;10220797;28;20069;-63
2023/12/09 19:37:07;;;;;;;21.17;16.67;;;;;;;;;;10216552;28;20550;-63
2023/12/09 19:42:06;;;;;;;16.23;12.35;;;;;;;;;;10218895;28;20064;-63
2023/12/09 19:47:05;;;;;;;17.63;13.50;;;;;;;;;;10225620;28;20081;-63
2023/12/09 19:52:03;;;;;;;19.20;15.13;;;;;;;;;;10205799;28;20061;-63
2023/12/09 19:57:02;;;;;;;23.23;18.08;;;;;;;;;;10229500;28;20069;-62
2023/12/09 20:02:01;;;;;;;20.88;17.08;;;;;;;;;;10220029;28;20065;-63
2023/12/09 20:07:00;;;;;;;27.92;21.50;;;;;;;;;;10224561;28;20088;-62
2023/12/09 20:11:58;;;;;;;23.58;16.83;;;;;;;;;;10224578;28;20076;-61
2023/12/09 20:16:56;;;;;;;21.55;16.92;;;;;;;;;;10221741;28;20503;-63
2023/12/09 20:21:56;;;;;;;32.88;19.67;;;;;;;;;;10224560;28;20080;-62
2023/12/09 20:26:55;;;;;;;30.10;18.92;;;;;;;;;;10233061;28;20077;-63
2023/12/09 20:31:53;;;;;;;42.63;27.98;;;;;;;;;;10220368;28;20070;-65
2023/12/09 20:36:51;;;;;;;29.55;20.17;;;;;;;;;;10213154;28;20073;-64
2023/12/09 20:41:51;;;;;;;26.55;17.42;;;;;;;;;;10221467;28;20065;-64
2023/12/09 20:46:50;;;;;;;22.92;17.13;;;;;;;;;;10218514;28;20083;-63
2023/12/09 20:51:48;;;;;;;19.77;15.25;;;;;;;;;;10220953;28;20080;-63
2023/12/09 20:56:47;;;;;;;22.00;16.65;;;;;;;;;;10196461;28;20078;-63
2023/12/09 21:01:48;;;;;;;21.95;16.10;;;;;;;;;;10196335;28;20085;-62
2023/12/09 21:06:47;;;;;;;22.55;15.25;;;;;;;;;;10204571;28;20092;-63
2023/12/09 21:11:46;;;;;;;21.67;16.80;;;;;;;;;;10191733;28;20100;-63
2023/12/09 21:16:44;;;;;;;27.08;21.38;;;;;;;;;;10224753;28;20490;-63
2023/12/09 21:21:44;;;;;;;37.17;24.50;;;;;;;;;;10195394;28;20081;-63
2023/12/09 21:26:42;;;;;;;69.40;42.13;;;;;;;;;;10191568;28;20077;-64
2023/12/09 21:31:41;;;;;;;60.05;35.85;;;;;;;;;;10191920;28;20078;-63
2023/12/09 21:36:39;;;;;;;24.23;17.70;;;;;;;;;;10192007;28;20081;-63
2023/12/09 21:41:39;;;;;;;35.65;21.52;;;;;;;;;;10194361;28;20089;-64
2023/12/09 21:46:37;;;;;;;48.65;29.30;;;;;;;;;;10201854;28;20080;-64
2023/12/09 21:51:38;;;;;;;25.33;18.45;;;;;;;;;;10191602;28;20476;-64
2023/12/09 21:56:36;;;;;;;48.63;32.60;;;;;;;;;;10197066;28;20103;-64
2023/12/09 22:01:38;;;;;;;19.35;16.67;;;;;;;;;;10211263;28;20081;-63
2023/12/09 22:06:37;;;;;;;23.52;15.00;;;;;;;;;;10195532;28;20077;-63
2023/12/09 22:11:35;;;;;;;26.38;19.13;;;;;;;;;;10211199;28;20108;-64
2023/12/09 22:16:34;;;;;;;31.45;20.35;;;;;;;;;;10198767;28;20065;-62
2023/12/09 22:21:38;;;;;;;30.80;21.02;;;;;;;;;;10198698;28;20042;-64
2023/12/09 22:26:41;;;;;;;19.58;13.65;;;;;;;;;;10198397;28;20073;-62
2023/12/09 22:31:42;;;;;;;27.83;19.70;;;;;;;;;;10198244;28;20078;-63
2023/12/09 22:36:42;;;;;;;12.35;9.30;;;;;;;;;;10198098;28;20815;-63
2023/12/09 22:41:40;;;;;;;28.70;19.92;;;;;;;;;;10210677;28;20088;-63
2023/12/09 22:46:39;;;;;;;19.10;13.05;;;;;;;;;;10205784;28;20064;-62
2023/12/09 22:51:38;;;;;;;28.48;19.73;;;;;;;;;;10211966;28;20507;-62
2023/12/09 22:56:38;;;;;;;19.23;14.57;;;;;;;;;;10196979;28;20522;-63
2023/12/09 23:01:36;;;;;;;13.05;10.25;;;;;;;;;;10196961;28;20077;-63
2023/12/09 23:06:35;;;;;;;13.40;9.98;;;;;;;;;;10197411;28;20065;-63
2023/12/09 23:11:33;;;;;;;22.55;15.80;;;;;;;;;;10196929;28;20499;-63
2023/12/09 23:16:32;;;;;;;20.02;14.90;;;;;;;;;;10195538;28;20093;-62
2023/12/09 23:21:31;;;;;;;30.33;19.58;;;;;;;;;;10196635;28;20419;-63
2023/12/09 23:26:29;;;;;;;26.58;15.10;;;;;;;;;;10196365;28;20080;-63
2023/12/09 23:31:27;;;;;;;71.97;40.85;;;;;;;;;;10195673;28;20077;-63
2023/12/09 23:36:39;;;;;;;26.85;16.58;;;;;;;;;;10177715;28;20056;-63
2023/12/09 23:41:38;;;;;;;29.77;20.00;;;;;;;;;;10194536;28;20534;-63
2023/12/09 23:46:36;;;;;;;184.07;101.57;;;;;;;;;;10194777;28;20590;-63
2023/12/09 23:51:34;;;;;;;129.15;67.63;;;;;;;;;;10195126;28;20092;-62
2023/12/09 23:56:34;;;;;;;190.27;105.53;;;;;;;;;;10194815;28;20076;-62
